sensor_id;sensor_type;location;lat;lon;timestamp;temperature;humidity
2212;DHT22;48849;48.758;9.158;2022-09-28T00:00:19;13.20;99.90
2212;DHT22;48849;48.758;9.158;2022-09-28T00:02:45;13.20;99.90
2212;DHT22;48849;48.758;9.158;2022-09-28T00:05:12;13.20;99.90
2212;DHT22;48849;48.758;9.158;2022-09-28T00:07:39;13.20;99.90
2212;DHT22;48849;48.758;9.158;2022-09-28T00:10:07;13.20;99.90
2212;DHT22;48849;48.758;9.158;2022-09-28T00:12:35;13.20;99.90
2212;DHT22;48849;48.758;9.158;2022-09-28T00:15:02;13.10;99.90
2212;DHT22;48849;48.758;9.158;2022-09-28T00:17:29;13.10;99.90
2212;DHT22;48849;48.758;9.158;2022-09-28T00:19:55;13.10;99.90
2212;DHT22;48849;48.758;9.158;2022-09-28T00:22:22;13.20;99.90
2212;DHT22;48849;48.758;9.158;2022-09-28T00:24:49;13.20;99.90
2212;DHT22;48849;48.758;9.158;2022-09-28T00:27:16;13.20;99.90
2212;DHT22;48849;48.758;9.158;2022-09-28T00:29:44;13.20;99.90
2212;DHT22;48849;48.758;9.158;2022-09-28T00:32:11;13.20;99.90
2212;DHT22;48849;48.758;9.158;2022-09-28T00:34:39;13.20;99.90
2212;DHT22;48849;48.758;9.158;2022-09-28T00:37:08;13.20;99.90
2212;DHT22;48849;48.758;9.158;2022-09-28T00:39:35;13.30;99.90
2212;DHT22;48849;48.758;9.158;2022-09-28T00:42:10;13.30;99.90
2212;DHT22;48849;48.758;9.158;2022-09-28T00:44:48;13.20;99.90
2212;DHT22;48849;48.758;9.158;2022-09-28T00:47:37;13.20;99.90
2212;DHT22;48849;48.758;9.158;2022-09-28T00:50:10;13.20;99.90
2212;DHT22;48849;48.758;9.158;2022-09-28T00:52:41;13.20;99.90
2212;DHT22;48849;48.758;9.158;2022-09-28T00:55:13;13.20;99.90
2212;DHT22;48849;48.758;9.158;2022-09-28T00:57:42;13.20;99.90
2212;DHT22;48849;48.758;9.158;2022-09-28T01:00:13;13.20;99.90
2212;DHT22;48849;48.758;9.158;2022-09-28T01:02:40;13.20;99.90
2212;DHT22;48849;48.758;9.158;2022-09-28T01:05:08;13.30;99.90
2212;DHT22;48849;48.758;9.158;2022-09-28T01:07:36;13.30;99.90
2212;DHT22;48849;48.758;9.158;2022-09-28T01:10:04;13.30;99.90
2212;DHT22;48849;48.758;9.158;2022-09-28T01:12:31;13.30;99.90
2212;DHT22;48849;48.758;9.158;2022-09-28T01:14:58;13.20;99.90
2212;DHT22;48849;48.758;9.158;2022-09-28T01:17:31;13.30;99.90
2212;DHT22;48849;48.758;9.158;2022-09-28T01:23:30;13.30;99.90
2212;DHT22;48849;48.758;9.158;2022-09-28T01:26:25;13.30;99.90
2212;DHT22;48849;48.758;9.158;2022-09-28T01:29:02;13.30;99.90
2212;DHT22;48849;48.758;9.158;2022-09-28T01:31:33;13.30;99.90
2212;DHT22;48849;48.758;9.158;2022-09-28T01:34:05;13.30;99.90
2212;DHT22;48849;48.758;9.158;2022-09-28T01:36:40;13.30;99.90
2212;DHT22;48849;48.758;9.158;2022-09-28T01:39:11;13.30;99.90
2212;DHT22;48849;48.758;9.158;2022-09-28T01:41:44;13.30;99.90
2212;DHT22;48849;48.758;9.158;2022-09-28T01:44:14;13.30;99.90
2212;DHT22;48849;48.758;9.158;2022-09-28T01:46:45;13.40;99.90
2212;DHT22;48849;48.758;9.158;2022-09-28T01:49:17;13.40;99.90
2212;DHT22;48849;48.758;9.158;2022-09-28T01:51:49;13.40;99.90
2212;DHT22;48849;48.758;9.158;2022-09-28T01:54:22;13.30;99.90
2212;DHT22;48849;48.758;9.158;2022-09-28T01:56:55;13.40;99.90
2212;DHT22;48849;48.758;9.158;2022-09-28T01:59:26;13.40;99.90
2212;DHT22;48849;48.758;9.158;2022-09-28T02:01:57;13.40;99.90
2212;DHT22;48849;48.758;9.158;2022-09-28T02:04:29;13.30;99.90
2212;DHT22;48849;48.758;9.158;2022-09-28T02:07:02;13.30;99.90
2212;DHT22;48849;48.758;9.158;2022-09-28T02:09:34;13.40;99.90
2212;DHT22;48849;48.758;9.158;2022-09-28T02:12:09;13.40;99.90
2212;DHT22;48849;48.758;9.158;2022-09-28T02:14:40;13.40;99.90
2212;DHT22;48849;48.758;9.158;2022-09-28T02:17:09;13.40;99.90
2212;DHT22;48849;48.758;9.158;2022-09-28T02:19:37;13.60;99.90
2212;DHT22;48849;48.758;9.158;2022-09-28T02:22:12;13.50;99.90
2212;DHT22;48849;48.758;9.158;2022-09-28T02:24:52;13.50;99.90
2212;DHT22;48849;48.758;9.158;2022-09-28T02:27:28;13.50;99.90
2212;DHT22;48849;48.758;9.158;2022-09-28T02:29:57;13.50;99.90
2212;DHT22;48849;48.758;9.158;2022-09-28T02:32:25;13.50;99.90
2212;DHT22;48849;48.758;9.158;2022-09-28T02:34:54;13.50;99.90
2212;DHT22;48849;48.758;9.158;2022-09-28T02:37:21;13.50;99.90
2212;DHT22;48849;48.758;9.158;2022-09-28T02:39:47;13.60;99.90
2212;DHT22;48849;48.758;9.158;2022-09-28T02:42:19;13.60;99.90
2212;DHT22;48849;48.758;9.158;2022-09-28T02:45:07;13.60;99.90
2212;DHT22;48849;48.758;9.158;2022-09-28T02:47:47;13.60;99.90
2212;DHT22;48849;48.758;9.158;2022-09-28T02:50:23;13.60;99.90
2212;DHT22;48849;48.758;9.158;2022-09-28T02:53:13;13.60;99.90
2212;DHT22;48849;48.758;9.158;2022-09-28T02:55:54;13.60;99.90
2212;DHT22;48849;48.758;9.158;2022-09-28T02:58:34;13.60;99.90
2212;DHT22;48849;48.758;9.158;2022-09-28T03:01:09;13.60;99.90
2212;DHT22;48849;48.758;9.158;2022-09-28T03:03:44;13.60;99.90
2212;DHT22;48849;48.758;9.158;2022-09-28T03:06:19;13.60;99.90
2212;DHT22;48849;48.758;9.158;2022-09-28T03:08:51;13.60;99.90
2212;DHT22;48849;48.758;9.158;2022-09-28T03:11:21;13.60;99.90
2212;DHT22;48849;48.758;9.158;2022-09-28T03:13:49;13.70;99.90
2212;DHT22;48849;48.758;9.158;2022-09-28T03:16:18;13.70;99.90
2212;DHT22;48849;48.758;9.158;2022-09-28T03:18:45;13.70;99.90
2212;DHT22;48849;48.758;9.158;2022-09-28T03:21:13;13.70;99.90
2212;DHT22;48849;48.758;9.158;2022-09-28T03:23:41;13.70;99.90
2212;DHT22;48849;48.758;9.158;2022-09-28T03:26:08;13.70;99.90
2212;DHT22;48849;48.758;9.158;2022-09-28T03:28:36;13.70;99.90
2212;DHT22;48849;48.758;9.158;2022-09-28T03:31:02;13.70;99.90
2212;DHT22;48849;48.758;9.158;2022-09-28T03:33:31;13.70;99.90
2212;DHT22;48849;48.758;9.158;2022-09-28T03:35:58;13.70;99.90
2212;DHT22;48849;48.758;9.158;2022-09-28T03:38:24;13.70;99.90
2212;DHT22;48849;48.758;9.158;2022-09-28T03:40:52;13.70;99.90
2212;DHT22;48849;48.758;9.158;2022-09-28T03:43:19;13.70;99.90
2212;DHT22;48849;48.758;9.158;2022-09-28T03:45:51;13.70;99.90
2212;DHT22;48849;48.758;9.158;2022-09-28T03:48:20;13.80;99.90
2212;DHT22;48849;48.758;9.158;2022-09-28T03:50:51;13.80;99.90
2212;DHT22;48849;48.758;9.158;2022-09-28T03:53:18;13.70;99.90
2212;DHT22;48849;48.758;9.158;2022-09-28T03:55:45;13.70;99.90
2212;DHT22;48849;48.758;9.158;2022-09-28T03:58:12;13.70;99.90
2212;DHT22;48849;48.758;9.158;2022-09-28T04:00:38;13.80;99.90
2212;DHT22;48849;48.758;9.158;2022-09-28T04:03:05;13.80;99.90
2212;DHT22;48849;48.758;9.158;2022-09-28T04:05:32;13.80;99.90
2212;DHT22;48849;48.758;9.158;2022-09-28T04:08:00;13.80;99.90
2212;DHT22;48849;48.758;9.158;2022-09-28T04:10:27;13.80;99.90
2212;DHT22;48849;48.758;9.158;2022-09-28T04:12:54;13.80;99.90
2212;DHT22;48849;48.758;9.158;2022-09-28T04:15:21;13.80;99.90
2212;DHT22;48849;48.758;9.158;2022-09-28T04:17:48;13.80;99.90
2212;DHT22;48849;48.758;9.158;2022-09-28T04:20:14;13.70;99.90
2212;DHT22;48849;48.758;9.158;2022-09-28T04:22:41;13.70;99.90
2212;DHT22;48849;48.758;9.158;2022-09-28T04:25:10;13.60;99.90
2212;DHT22;48849;48.758;9.158;2022-09-28T04:27:36;13.60;99.90
2212;DHT22;48849;48.758;9.158;2022-09-28T04:30:20;13.70;99.90
2212;DHT22;48849;48.758;9.158;2022-09-28T04:32:47;13.70;99.90
2212;DHT22;48849;48.758;9.158;2022-09-28T04:35:14;13.60;99.90
2212;DHT22;48849;48.758;9.158;2022-09-28T04:37:41;13.60;99.90
2212;DHT22;48849;48.758;9.158;2022-09-28T04:40:09;13.60;99.90
2212;DHT22;48849;48.758;9.158;2022-09-28T04:42:36;13.60;99.90
2212;DHT22;48849;48.758;9.158;2022-09-28T04:45:04;13.60;99.90
2212;DHT22;48849;48.758;9.158;2022-09-28T04:47:30;13.60;99.90
2212;DHT22;48849;48.758;9.158;2022-09-28T04:49:57;13.60;99.90
2212;DHT22;48849;48.758;9.158;2022-09-28T04:52:24;13.60;99.90
2212;DHT22;48849;48.758;9.158;2022-09-28T04:54:51;13.60;99.90
2212;DHT22;48849;48.758;9.158;2022-09-28T04:57:19;13.50;99.90
2212;DHT22;48849;48.758;9.158;2022-09-28T04:59:46;13.50;99.90
2212;DHT22;48849;48.758;9.158;2022-09-28T05:02:12;13.50;99.90
2212;DHT22;48849;48.758;9.158;2022-09-28T05:04:39;13.50;99.90
2212;DHT22;48849;48.758;9.158;2022-09-28T05:07:06;13.50;99.90
2212;DHT22;48849;48.758;9.158;2022-09-28T05:09:33;13.40;99.90
2212;DHT22;48849;48.758;9.158;2022-09-28T05:12:00;13.40;99.90
2212;DHT22;48849;48.758;9.158;2022-09-28T05:14:29;13.50;99.90
2212;DHT22;48849;48.758;9.158;2022-09-28T05:16:56;13.50;99.90
2212;DHT22;48849;48.758;9.158;2022-09-28T05:19:23;13.50;99.90
2212;DHT22;48849;48.758;9.158;2022-09-28T05:21:50;13.50;99.90
2212;DHT22;48849;48.758;9.158;2022-09-28T05:24:16;13.50;99.90
2212;DHT22;48849;48.758;9.158;2022-09-28T05:26:43;13.40;99.90
2212;DHT22;48849;48.758;9.158;2022-09-28T05:29:10;13.40;99.90
2212;DHT22;48849;48.758;9.158;2022-09-28T05:31:38;13.40;99.90
2212;DHT22;48849;48.758;9.158;2022-09-28T05:34:05;13.40;99.90
2212;DHT22;48849;48.758;9.158;2022-09-28T05:36:32;13.40;99.90
2212;DHT22;48849;48.758;9.158;2022-09-28T05:39:00;13.50;99.90
2212;DHT22;48849;48.758;9.158;2022-09-28T05:41:28;13.40;99.90
2212;DHT22;48849;48.758;9.158;2022-09-28T05:43:55;13.40;99.90
2212;DHT22;48849;48.758;9.158;2022-09-28T05:46:22;13.40;99.90
2212;DHT22;48849;48.758;9.158;2022-09-28T05:48:50;13.40;99.90
2212;DHT22;48849;48.758;9.158;2022-09-28T05:51:18;13.40;99.90
2212;DHT22;48849;48.758;9.158;2022-09-28T05:53:45;13.40;99.90
2212;DHT22;48849;48.758;9.158;2022-09-28T05:56:12;13.30;99.90
2212;DHT22;48849;48.758;9.158;2022-09-28T05:58:39;13.30;99.90
2212;DHT22;48849;48.758;9.158;2022-09-28T06:01:05;13.30;99.90
2212;DHT22;48849;48.758;9.158;2022-09-28T06:03:32;13.30;99.90
2212;DHT22;48849;48.758;9.158;2022-09-28T06:06:00;13.30;99.90
2212;DHT22;48849;48.758;9.158;2022-09-28T06:08:29;13.30;99.90
2212;DHT22;48849;48.758;9.158;2022-09-28T06:10:58;13.30;99.90
2212;DHT22;48849;48.758;9.158;2022-09-28T06:13:25;13.30;99.90
2212;DHT22;48849;48.758;9.158;2022-09-28T06:15:52;13.30;99.90
2212;DHT22;48849;48.758;9.158;2022-09-28T06:18:19;13.30;99.90
2212;DHT22;48849;48.758;9.158;2022-09-28T06:20:53;13.30;99.90
2212;DHT22;48849;48.758;9.158;2022-09-28T06:23:21;13.80;99.90
2212;DHT22;48849;48.758;9.158;2022-09-28T06:25:47;13.30;99.90
2212;DHT22;48849;48.758;9.158;2022-09-28T06:28:14;13.30;99.90
2212;DHT22;48849;48.758;9.158;2022-09-28T06:30:42;13.40;99.90
2212;DHT22;48849;48.758;9.158;2022-09-28T06:33:11;13.40;99.90
2212;DHT22;48849;48.758;9.158;2022-09-28T06:35:38;13.40;99.90
2212;DHT22;48849;48.758;9.158;2022-09-28T06:38:05;13.40;99.90
2212;DHT22;48849;48.758;9.158;2022-09-28T06:40:33;13.40;99.90
2212;DHT22;48849;48.758;9.158;2022-09-28T06:43:02;13.40;99.90
2212;DHT22;48849;48.758;9.158;2022-09-28T06:45:31;14.00;99.90
2212;DHT22;48849;48.758;9.158;2022-09-28T06:47:59;13.40;99.90
2212;DHT22;48849;48.758;9.158;2022-09-28T06:50:27;13.50;99.90
2212;DHT22;48849;48.758;9.158;2022-09-28T06:52:57;13.50;99.90
2212;DHT22;48849;48.758;9.158;2022-09-28T06:55:25;13.50;99.90
2212;DHT22;48849;48.758;9.158;2022-09-28T06:58:04;13.60;99.90
2212;DHT22;48849;48.758;9.158;2022-09-28T07:00:32;13.60;99.90
2212;DHT22;48849;48.758;9.158;2022-09-28T07:03:00;13.60;99.90
2212;DHT22;48849;48.758;9.158;2022-09-28T07:05:28;13.60;99.90
2212;DHT22;48849;48.758;9.158;2022-09-28T07:07:55;13.60;99.90
2212;DHT22;48849;48.758;9.158;2022-09-28T07:10:23;13.60;99.90
2212;DHT22;48849;48.758;9.158;2022-09-28T07:12:52;13.70;99.90
2212;DHT22;48849;48.758;9.158;2022-09-28T07:15:21;13.70;99.90
2212;DHT22;48849;48.758;9.158;2022-09-28T07:17:56;13.70;99.90
2212;DHT22;48849;48.758;9.158;2022-09-28T07:20:23;13.70;99.90
2212;DHT22;48849;48.758;9.158;2022-09-28T07:22:52;13.70;99.90
2212;DHT22;48849;48.758;9.158;2022-09-28T07:25:19;13.70;99.90
2212;DHT22;48849;48.758;9.158;2022-09-28T07:27:45;13.70;99.90
2212;DHT22;48849;48.758;9.158;2022-09-28T07:30:12;13.70;99.90
2212;DHT22;48849;48.758;9.158;2022-09-28T07:32:41;13.70;99.90
2212;DHT22;48849;48.758;9.158;2022-09-28T07:35:08;13.70;99.90
2212;DHT22;48849;48.758;9.158;2022-09-28T07:37:35;13.70;99.90
2212;DHT22;48849;48.758;9.158;2022-09-28T07:40:02;13.70;99.90
2212;DHT22;48849;48.758;9.158;2022-09-28T07:43:03;13.70;99.90
2212;DHT22;48849;48.758;9.158;2022-09-28T07:45:29;13.70;99.90
2212;DHT22;48849;48.758;9.158;2022-09-28T07:48:01;13.80;99.90
2212;DHT22;48849;48.758;9.158;2022-09-28T07:50:28;13.80;99.90
2212;DHT22;48849;48.758;9.158;2022-09-28T07:52:55;13.80;99.90
2212;DHT22;48849;48.758;9.158;2022-09-28T07:55:22;13.80;99.90
2212;DHT22;48849;48.758;9.158;2022-09-28T07:57:53;13.90;99.90
2212;DHT22;48849;48.758;9.158;2022-09-28T08:00:20;13.80;99.90
2212;DHT22;48849;48.758;9.158;2022-09-28T08:02:51;13.80;99.90
2212;DHT22;48849;48.758;9.158;2022-09-28T08:05:19;13.80;99.90
2212;DHT22;48849;48.758;9.158;2022-09-28T08:07:46;13.90;99.90
2212;DHT22;48849;48.758;9.158;2022-09-28T08:10:13;13.80;99.90
2212;DHT22;48849;48.758;9.158;2022-09-28T08:12:41;13.90;99.90
2212;DHT22;48849;48.758;9.158;2022-09-28T08:15:08;13.90;99.90
2212;DHT22;48849;48.758;9.158;2022-09-28T08:17:37;13.90;99.90
2212;DHT22;48849;48.758;9.158;2022-09-28T08:20:05;13.90;99.90
2212;DHT22;48849;48.758;9.158;2022-09-28T08:22:51;13.90;99.90
2212;DHT22;48849;48.758;9.158;2022-09-28T08:25:19;14.00;99.90
2212;DHT22;48849;48.758;9.158;2022-09-28T08:27:46;13.90;99.90
2212;DHT22;48849;48.758;9.158;2022-09-28T08:30:14;14.00;99.90
2212;DHT22;48849;48.758;9.158;2022-09-28T08:32:45;14.00;99.90
2212;DHT22;48849;48.758;9.158;2022-09-28T08:35:12;14.10;99.90
2212;DHT22;48849;48.758;9.158;2022-09-28T08:37:39;14.00;99.90
2212;DHT22;48849;48.758;9.158;2022-09-28T08:40:15;14.00;99.90
2212;DHT22;48849;48.758;9.158;2022-09-28T08:42:43;14.00;99.90
2212;DHT22;48849;48.758;9.158;2022-09-28T08:45:12;14.30;99.90
2212;DHT22;48849;48.758;9.158;2022-09-28T08:47:48;14.00;99.90
2212;DHT22;48849;48.758;9.158;2022-09-28T08:50:47;14.00;99.90
2212;DHT22;48849;48.758;9.158;2022-09-28T08:53:24;14.10;99.90
2212;DHT22;48849;48.758;9.158;2022-09-28T08:55:58;14.10;99.90
2212;DHT22;48849;48.758;9.158;2022-09-28T08:58:30;14.20;99.90
2212;DHT22;48849;48.758;9.158;2022-09-28T09:00:59;14.20;99.90
2212;DHT22;48849;48.758;9.158;2022-09-28T09:03:30;14.20;99.90
2212;DHT22;48849;48.758;9.158;2022-09-28T09:06:06;14.10;99.90
2212;DHT22;48849;48.758;9.158;2022-09-28T09:08:45;14.00;99.90
2212;DHT22;48849;48.758;9.158;2022-09-28T09:11:28;14.10;99.90
2212;DHT22;48849;48.758;9.158;2022-09-28T09:14:20;14.00;99.90
2212;DHT22;48849;48.758;9.158;2022-09-28T09:16:56;14.10;99.90
2212;DHT22;48849;48.758;9.158;2022-09-28T09:19:33;14.10;99.90
2212;DHT22;48849;48.758;9.158;2022-09-28T09:22:07;14.20;99.90
2212;DHT22;48849;48.758;9.158;2022-09-28T09:24:46;14.20;99.90
2212;DHT22;48849;48.758;9.158;2022-09-28T09:27:24;14.20;99.90
2212;DHT22;48849;48.758;9.158;2022-09-28T09:30:03;14.10;99.90
2212;DHT22;48849;48.758;9.158;2022-09-28T09:32:49;14.10;99.90
2212;DHT22;48849;48.758;9.158;2022-09-28T09:35:30;14.20;99.90
2212;DHT22;48849;48.758;9.158;2022-09-28T09:38:16;14.10;99.90
2212;DHT22;48849;48.758;9.158;2022-09-28T09:41:00;14.10;99.90
2212;DHT22;48849;48.758;9.158;2022-09-28T09:44:01;14.10;99.90
2212;DHT22;48849;48.758;9.158;2022-09-28T09:46:35;14.00;99.90
2212;DHT22;48849;48.758;9.158;2022-09-28T09:49:07;14.10;99.90
2212;DHT22;48849;48.758;9.158;2022-09-28T09:51:40;14.20;99.90
2212;DHT22;48849;48.758;9.158;2022-09-28T09:54:15;14.20;99.90
2212;DHT22;48849;48.758;9.158;2022-09-28T09:56:47;14.20;99.90
2212;DHT22;48849;48.758;9.158;2022-09-28T09:59:19;14.20;99.90
2212;DHT22;48849;48.758;9.158;2022-09-28T10:01:49;14.20;99.90
2212;DHT22;48849;48.758;9.158;2022-09-28T10:04:20;14.20;99.90
2212;DHT22;48849;48.758;9.158;2022-09-28T10:06:49;14.30;99.90
2212;DHT22;48849;48.758;9.158;2022-09-28T10:09:22;14.30;99.90
2212;DHT22;48849;48.758;9.158;2022-09-28T10:11:50;14.50;99.90
2212;DHT22;48849;48.758;9.158;2022-09-28T10:14:20;14.40;99.90
2212;DHT22;48849;48.758;9.158;2022-09-28T10:16:48;14.40;99.90
2212;DHT22;48849;48.758;9.158;2022-09-28T10:19:18;14.40;99.90
2212;DHT22;48849;48.758;9.158;2022-09-28T10:21:48;14.40;99.90
2212;DHT22;48849;48.758;9.158;2022-09-28T10:24:21;14.40;99.90
2212;DHT22;48849;48.758;9.158;2022-09-28T10:26:53;14.40;99.90
2212;DHT22;48849;48.758;9.158;2022-09-28T10:29:28;14.50;99.90
2212;DHT22;48849;48.758;9.158;2022-09-28T10:31:59;14.50;99.90
2212;DHT22;48849;48.758;9.158;2022-09-28T10:34:29;14.50;99.90
2212;DHT22;48849;48.758;9.158;2022-09-28T10:36:57;14.50;99.90
2212;DHT22;48849;48.758;9.158;2022-09-28T10:39:28;14.50;99.90
2212;DHT22;48849;48.758;9.158;2022-09-28T10:41:57;14.50;99.90
2212;DHT22;48849;48.758;9.158;2022-09-28T10:44:32;14.50;99.90
2212;DHT22;48849;48.758;9.158;2022-09-28T10:47:02;14.50;99.90
2212;DHT22;48849;48.758;9.158;2022-09-28T10:49:37;14.50;99.90
2212;DHT22;48849;48.758;9.158;2022-09-28T10:52:09;14.50;99.90
2212;DHT22;48849;48.758;9.158;2022-09-28T10:54:53;14.60;99.90
2212;DHT22;48849;48.758;9.158;2022-09-28T10:57:26;14.60;99.90
2212;DHT22;48849;48.758;9.158;2022-09-28T10:59:55;14.60;99.90
2212;DHT22;48849;48.758;9.158;2022-09-28T11:02:24;14.60;99.90
2212;DHT22;48849;48.758;9.158;2022-09-28T11:04:54;14.60;99.90
2212;DHT22;48849;48.758;9.158;2022-09-28T11:07:24;14.60;99.90
2212;DHT22;48849;48.758;9.158;2022-09-28T11:09:53;14.60;99.90
2212;DHT22;48849;48.758;9.158;2022-09-28T11:12:22;14.60;99.90
2212;DHT22;48849;48.758;9.158;2022-09-28T11:14:56;14.60;99.90
2212;DHT22;48849;48.758;9.158;2022-09-28T11:17:27;14.60;99.90
2212;DHT22;48849;48.758;9.158;2022-09-28T11:19:55;14.60;99.90
2212;DHT22;48849;48.758;9.158;2022-09-28T11:22:24;14.70;99.90
2212;DHT22;48849;48.758;9.158;2022-09-28T11:25:12;14.60;99.90
2212;DHT22;48849;48.758;9.158;2022-09-28T11:27:39;14.70;99.90
2212;DHT22;48849;48.758;9.158;2022-09-28T11:30:20;14.70;99.90
2212;DHT22;48849;48.758;9.158;2022-09-28T11:32:48;14.80;99.90
2212;DHT22;48849;48.758;9.158;2022-09-28T11:35:17;14.80;99.90
2212;DHT22;48849;48.758;9.158;2022-09-28T11:38:08;14.90;99.90
2212;DHT22;48849;48.758;9.158;2022-09-28T11:40:53;14.90;99.90
2212;DHT22;48849;48.758;9.158;2022-09-28T11:43:37;14.90;99.90
2212;DHT22;48849;48.758;9.158;2022-09-28T11:46:14;15.00;99.90
2212;DHT22;48849;48.758;9.158;2022-09-28T11:48:49;15.10;99.90
2212;DHT22;48849;48.758;9.158;2022-09-28T11:51:22;15.20;99.90
2212;DHT22;48849;48.758;9.158;2022-09-28T11:53:53;15.30;99.90
2212;DHT22;48849;48.758;9.158;2022-09-28T11:56:29;15.40;99.90
2212;DHT22;48849;48.758;9.158;2022-09-28T11:59:00;15.40;99.90
2212;DHT22;48849;48.758;9.158;2022-09-28T12:01:35;15.50;99.90
2212;DHT22;48849;48.758;9.158;2022-09-28T12:04:07;15.50;99.90
2212;DHT22;48849;48.758;9.158;2022-09-28T12:06:39;15.60;99.90
2212;DHT22;48849;48.758;9.158;2022-09-28T12:09:14;15.60;99.90
2212;DHT22;48849;48.758;9.158;2022-09-28T12:11:43;15.70;99.90
2212;DHT22;48849;48.758;9.158;2022-09-28T12:14:17;15.70;99.90
2212;DHT22;48849;48.758;9.158;2022-09-28T12:16:49;15.70;99.90
2212;DHT22;48849;48.758;9.158;2022-09-28T12:19:19;15.70;99.90
2212;DHT22;48849;48.758;9.158;2022-09-28T12:21:49;15.60;99.90
2212;DHT22;48849;48.758;9.158;2022-09-28T12:24:22;15.60;99.90
2212;DHT22;48849;48.758;9.158;2022-09-28T12:26:53;15.60;99.90
2212;DHT22;48849;48.758;9.158;2022-09-28T12:29:26;15.60;99.90
2212;DHT22;48849;48.758;9.158;2022-09-28T12:32:02;15.60;99.90
2212;DHT22;48849;48.758;9.158;2022-09-28T12:34:29;15.60;99.90
2212;DHT22;48849;48.758;9.158;2022-09-28T12:37:11;15.60;99.90
2212;DHT22;48849;48.758;9.158;2022-09-28T12:39:53;15.50;99.90
2212;DHT22;48849;48.758;9.158;2022-09-28T12:45:30;15.50;99.90
2212;DHT22;48849;48.758;9.158;2022-09-28T12:48:30;15.50;99.90
2212;DHT22;48849;48.758;9.158;2022-09-28T12:51:12;15.50;99.90
2212;DHT22;48849;48.758;9.158;2022-09-28T12:54:05;15.60;99.90
2212;DHT22;48849;48.758;9.158;2022-09-28T12:56:40;15.50;99.90
2212;DHT22;48849;48.758;9.158;2022-09-28T12:59:15;15.60;99.90
2212;DHT22;48849;48.758;9.158;2022-09-28T13:01:57;15.60;99.90
2212;DHT22;48849;48.758;9.158;2022-09-28T13:04:44;15.50;99.90
2212;DHT22;48849;48.758;9.158;2022-09-28T13:07:19;15.50;99.90
2212;DHT22;48849;48.758;9.158;2022-09-28T13:09:58;15.50;99.90
2212;DHT22;48849;48.758;9.158;2022-09-28T13:12:35;15.50;99.90
2212;DHT22;48849;48.758;9.158;2022-09-28T13:15:31;15.60;99.90
2212;DHT22;48849;48.758;9.158;2022-09-28T13:18:07;15.60;99.90
2212;DHT22;48849;48.758;9.158;2022-09-28T13:20:54;15.60;99.90
2212;DHT22;48849;48.758;9.158;2022-09-28T13:23:26;15.60;99.90
2212;DHT22;48849;48.758;9.158;2022-09-28T13:25:57;15.60;99.90
2212;DHT22;48849;48.758;9.158;2022-09-28T13:28:26;15.60;99.90
2212;DHT22;48849;48.758;9.158;2022-09-28T13:30:55;15.60;99.90
2212;DHT22;48849;48.758;9.158;2022-09-28T13:33:29;15.60;99.90
2212;DHT22;48849;48.758;9.158;2022-09-28T13:35:59;15.60;99.90
2212;DHT22;48849;48.758;9.158;2022-09-28T13:38:54;15.60;99.90
2212;DHT22;48849;48.758;9.158;2022-09-28T13:41:24;15.60;99.90
2212;DHT22;48849;48.758;9.158;2022-09-28T13:44:23;15.60;99.90
2212;DHT22;48849;48.758;9.158;2022-09-28T13:47:17;15.60;99.90
2212;DHT22;48849;48.758;9.158;2022-09-28T13:49:59;15.60;99.90
2212;DHT22;48849;48.758;9.158;2022-09-28T13:52:42;15.60;99.90
2212;DHT22;48849;48.758;9.158;2022-09-28T13:55:22;15.50;99.90
2212;DHT22;48849;48.758;9.158;2022-09-28T13:57:54;15.50;99.90
2212;DHT22;48849;48.758;9.158;2022-09-28T14:00:27;15.50;99.90
2212;DHT22;48849;48.758;9.158;2022-09-28T14:02:58;15.50;99.90
2212;DHT22;48849;48.758;9.158;2022-09-28T14:05:42;15.50;99.90
2212;DHT22;48849;48.758;9.158;2022-09-28T14:08:26;15.50;99.90
2212;DHT22;48849;48.758;9.158;2022-09-28T14:10:54;15.60;99.90
2212;DHT22;48849;48.758;9.158;2022-09-28T14:16:23;15.50;99.90
2212;DHT22;48849;48.758;9.158;2022-09-28T14:18:54;15.50;99.90
2212;DHT22;48849;48.758;9.158;2022-09-28T14:21:54;15.50;99.90
2212;DHT22;48849;48.758;9.158;2022-09-28T14:24:43;15.50;99.90
2212;DHT22;48849;48.758;9.158;2022-09-28T14:27:28;15.50;99.90
2212;DHT22;48849;48.758;9.158;2022-09-28T14:30:17;15.50;99.90
2212;DHT22;48849;48.758;9.158;2022-09-28T14:32:52;15.60;99.90
2212;DHT22;48849;48.758;9.158;2022-09-28T14:35:26;15.50;99.90
2212;DHT22;48849;48.758;9.158;2022-09-28T14:37:58;15.50;99.90
2212;DHT22;48849;48.758;9.158;2022-09-28T14:41:04;15.50;99.90
2212;DHT22;48849;48.758;9.158;2022-09-28T14:43:36;15.50;99.90
2212;DHT22;48849;48.758;9.158;2022-09-28T14:46:35;15.50;99.90
2212;DHT22;48849;48.758;9.158;2022-09-28T14:49:05;15.50;99.90
2212;DHT22;48849;48.758;9.158;2022-09-28T14:52:00;15.50;99.90
2212;DHT22;48849;48.758;9.158;2022-09-28T14:54:47;15.50;99.90
2212;DHT22;48849;48.758;9.158;2022-09-28T14:57:19;15.50;99.90
2212;DHT22;48849;48.758;9.158;2022-09-28T14:59:46;15.50;99.90
2212;DHT22;48849;48.758;9.158;2022-09-28T15:02:18;15.50;99.90
2212;DHT22;48849;48.758;9.158;2022-09-28T15:04:49;15.50;99.90
2212;DHT22;48849;48.758;9.158;2022-09-28T15:07:22;15.50;99.90
2212;DHT22;48849;48.758;9.158;2022-09-28T15:09:50;15.50;99.90
2212;DHT22;48849;48.758;9.158;2022-09-28T15:12:24;15.50;99.90
2212;DHT22;48849;48.758;9.158;2022-09-28T15:14:53;15.40;99.90
2212;DHT22;48849;48.758;9.158;2022-09-28T15:17:22;15.40;99.90
2212;DHT22;48849;48.758;9.158;2022-09-28T15:22:45;15.40;99.90
2212;DHT22;48849;48.758;9.158;2022-09-28T15:25:13;15.40;99.90
2212;DHT22;48849;48.758;9.158;2022-09-28T15:27:42;15.40;99.90
2212;DHT22;48849;48.758;9.158;2022-09-28T15:30:20;15.40;99.90
2212;DHT22;48849;48.758;9.158;2022-09-28T15:32:48;15.40;99.90
2212;DHT22;48849;48.758;9.158;2022-09-28T15:35:19;15.40;99.90
2212;DHT22;48849;48.758;9.158;2022-09-28T15:37:45;15.40;99.90
2212;DHT22;48849;48.758;9.158;2022-09-28T15:40:18;15.40;99.90
2212;DHT22;48849;48.758;9.158;2022-09-28T15:42:46;15.40;99.90
2212;DHT22;48849;48.758;9.158;2022-09-28T15:45:22;15.40;99.90
2212;DHT22;48849;48.758;9.158;2022-09-28T15:47:52;15.40;99.90
2212;DHT22;48849;48.758;9.158;2022-09-28T15:50:25;15.40;99.90
2212;DHT22;48849;48.758;9.158;2022-09-28T15:52:55;15.30;99.90
2212;DHT22;48849;48.758;9.158;2022-09-28T15:55:24;15.30;99.90
2212;DHT22;48849;48.758;9.158;2022-09-28T15:58:06;15.30;99.90
2212;DHT22;48849;48.758;9.158;2022-09-28T16:00:34;15.30;99.90
2212;DHT22;48849;48.758;9.158;2022-09-28T16:03:03;15.30;99.90
2212;DHT22;48849;48.758;9.158;2022-09-28T16:05:39;15.20;99.90
2212;DHT22;48849;48.758;9.158;2022-09-28T16:08:13;15.20;99.90
2212;DHT22;48849;48.758;9.158;2022-09-28T16:11:03;15.20;99.90
2212;DHT22;48849;48.758;9.158;2022-09-28T16:13:34;15.20;99.90
2212;DHT22;48849;48.758;9.158;2022-09-28T16:16:01;15.10;99.90
2212;DHT22;48849;48.758;9.158;2022-09-28T16:18:29;15.10;99.90
2212;DHT22;48849;48.758;9.158;2022-09-28T16:23:49;15.10;99.90
2212;DHT22;48849;48.758;9.158;2022-09-28T16:26:28;15.00;99.90
2212;DHT22;48849;48.758;9.158;2022-09-28T16:28:58;15.00;99.90
2212;DHT22;48849;48.758;9.158;2022-09-28T16:31:27;15.00;99.90